Time;durP1;ratioP1;P1;durP2;ratioP2;P2;SDS_P1;SDS_P2;PMS_P1;PMS_P2;Temp;Humidity;BMP_temperature;BMP_pressure;BME280_temperature;BME280_humidity;BME280_pressure;Samples;Min_cycle;Max_cycle;Signal;HPM_P1;HPM_P2
2020/12/22 00:02:16;;;;;;;18.33;10.82;;;6.90;98.10;;;;;;5079732;28;20111;-66
2020/12/22 00:04:42;;;;;;;17.05;10.10;;;7.00;98.20;;;;;;5060171;28;20032;-66
2020/12/22 00:07:07;;;;;;;22.40;10.75;;;7.00;98.10;;;;;;5056677;28;20066;-66
2020/12/22 00:09:33;;;;;;;19.90;11.20;;;7.00;98.10;;;;;;5059461;28;20033;-65
2020/12/22 00:11:59;;;;;;;18.02;10.88;;;7.00;98.10;;;;;;5063295;28;20427;-66
2020/12/22 00:14:24;;;;;;;20.55;10.73;;;7.00;98.20;;;;;;5047839;28;20477;-66
2020/12/22 00:16:50;;;;;;;19.58;11.27;;;7.10;98.20;;;;;;5061863;28;20511;-67
2020/12/22 00:19:15;;;;;;;18.58;10.98;;;7.10;98.20;;;;;;5045540;28;20025;-66
2020/12/22 00:21:41;;;;;;;19.30;10.13;;;7.10;98.20;;;;;;5053274;28;20472;-66
2020/12/22 00:24:07;;;;;;;15.20;9.82;;;7.10;98.20;;;;;;5060365;28;20033;-66
2020/12/22 00:26:32;;;;;;;19.90;10.50;;;7.20;98.30;;;;;;5048298;28;20036;-66
2020/12/22 00:28:59;;;;;;;19.38;11.15;;;7.20;98.30;;;;;;5052700;28;20047;-67
2020/12/22 00:31:25;;;;;;;17.15;9.88;;;7.20;98.30;;;;;;5068939;28;20099;-66
2020/12/22 00:33:50;;;;;;;19.92;10.52;;;7.20;98.30;;;;;;5055751;28;20107;-66
2020/12/22 00:36:16;;;;;;;17.95;10.65;;;7.20;98.30;;;;;;5071872;28;20035;-66
2020/12/22 00:38:44;;;;;;;16.45;9.68;;;7.20;98.30;;;;;;5072212;28;20028;-66
2020/12/22 00:41:14;;;;;;;19.63;10.68;;;7.20;98.30;;;;;;5051998;28;20398;-66
2020/12/22 00:43:43;;;;;;;15.95;10.70;;;7.30;98.40;;;;;;5063186;28;20043;-66
2020/12/22 00:46:13;;;;;;;18.80;10.60;;;7.30;98.40;;;;;;5070375;28;20029;-66
2020/12/22 00:48:39;;;;;;;16.88;10.23;;;7.30;98.40;;;;;;5055736;28;20021;-66
2020/12/22 00:51:04;;;;;;;17.33;10.23;;;7.40;98.30;;;;;;5050699;28;20092;-66
2020/12/22 00:53:30;;;;;;;18.30;8.80;;;7.40;98.30;;;;;;5068420;28;20024;-66
2020/12/22 00:55:56;;;;;;;18.85;9.85;;;7.40;98.40;;;;;;5054930;28;20052;-66
2020/12/22 00:58:21;;;;;;;18.63;9.82;;;7.40;98.40;;;;;;5062437;28;20577;-67
2020/12/22 01:00:47;;;;;;;16.88;9.88;;;7.50;98.40;;;;;;5049762;28;20049;-66
2020/12/22 01:03:12;;;;;;;18.08;9.93;;;7.50;98.40;;;;;;5051826;28;20327;-66
2020/12/22 01:05:38;;;;;;;18.55;9.95;;;7.50;98.30;;;;;;5062690;28;20399;-66
2020/12/22 01:08:03;;;;;;;14.90;9.23;;;7.50;98.40;;;;;;5042316;28;20025;-65
2020/12/22 01:10:29;;;;;;;19.17;9.30;;;7.60;98.40;;;;;;5049492;28;20028;-67
2020/12/22 01:12:55;;;;;;;18.45;9.73;;;7.60;98.40;;;;;;5057460;28;20051;-66
2020/12/22 01:15:21;;;;;;;16.00;8.70;;;7.60;98.40;;;;;;5060001;28;20028;-66
2020/12/22 01:17:47;;;;;;;17.38;9.43;;;7.60;98.40;;;;;;5060598;28;20029;-67
2020/12/22 01:20:12;;;;;;;19.55;8.68;;;7.60;98.40;;;;;;5049705;28;20088;-66
2020/12/22 01:22:38;;;;;;;17.00;8.57;;;7.60;98.40;;;;;;5075569;28;20556;-65
2020/12/22 01:25:03;;;;;;;15.75;8.77;;;7.60;98.40;;;;;;5056650;28;20116;-66
2020/12/22 01:27:29;;;;;;;16.45;9.02;;;7.70;98.40;;;;;;5058110;28;20102;-66
2020/12/22 01:29:54;;;;;;;16.75;9.35;;;7.70;98.40;;;;;;5064013;28;20070;-66
2020/12/22 01:32:20;;;;;;;17.52;9.73;;;7.70;98.40;;;;;;5059364;28;20040;-66
2020/12/22 01:34:45;;;;;;;16.38;8.48;;;7.70;98.40;;;;;;5059521;28;21890;-66
2020/12/22 01:37:12;;;;;;;14.48;8.05;;;7.70;98.50;;;;;;5065547;28;20186;-66
2020/12/22 01:39:38;;;;;;;13.85;8.05;;;7.80;98.50;;;;;;5048524;28;20100;-67
2020/12/22 01:42:08;;;;;;;18.40;8.07;;;7.80;98.50;;;;;;5049960;28;20182;-66
2020/12/22 01:44:34;;;;;;;12.80;7.35;;;7.90;98.50;;;;;;5067595;28;20086;-65
2020/12/22 01:46:59;;;;;;;14.75;7.32;;;7.90;98.40;;;;;;5066634;28;20032;-66
2020/12/22 01:49:26;;;;;;;12.80;7.63;;;7.90;98.40;;;;;;5049626;28;20061;-66
2020/12/22 01:51:53;;;;;;;12.18;6.75;;;8.00;98.50;;;;;;5054846;28;20028;-66
2020/12/22 01:54:19;;;;;;;11.70;6.10;;;8.00;98.40;;;;;;5040896;28;20031;-66
2020/12/22 01:56:46;;;;;;;11.27;6.28;;;8.00;98.50;;;;;;5065413;28;20021;-66
2020/12/22 01:59:13;;;;;;;12.18;6.68;;;8.00;98.50;;;;;;5066643;28;20028;-66
2020/12/22 02:01:39;;;;;;;9.85;5.82;;;8.00;98.50;;;;;;5070639;28;20473;-66
2020/12/22 02:04:07;;;;;;;12.40;6.07;;;8.10;98.50;;;;;;5046727;28;20086;-66
2020/12/22 02:06:34;;;;;;;11.27;6.32;;;8.10;98.50;;;;;;5056116;28;20071;-67
2020/12/22 02:09:00;;;;;;;12.68;5.85;;;8.10;98.50;;;;;;5052845;28;20025;-66
2020/12/22 02:11:27;;;;;;;8.25;4.85;;;8.20;98.50;;;;;;5049667;28;20028;-66
2020/12/22 02:13:54;;;;;;;10.85;5.78;;;8.20;98.50;;;;;;5059235;28;20017;-67
2020/12/22 02:16:20;;;;;;;10.10;5.43;;;8.20;98.50;;;;;;5067089;28;20071;-66
2020/12/22 02:18:47;;;;;;;10.30;5.30;;;8.20;98.40;;;;;;5054951;28;20512;-67
2020/12/22 02:21:12;;;;;;;9.88;5.38;;;8.20;98.40;;;;;;5058471;28;20457;-66
2020/12/22 02:23:38;;;;;;;8.13;4.88;;;8.20;98.40;;;;;;5065107;28;20025;-66
2020/12/22 02:26:04;;;;;;;9.65;5.38;;;8.20;98.40;;;;;;5062020;28;20118;-65
2020/12/22 02:28:30;;;;;;;10.57;5.68;;;8.20;98.50;;;;;;5062329;28;20025;-66
2020/12/22 02:30:55;;;;;;;9.35;5.60;;;8.30;98.40;;;;;;5069207;28;20092;-66
2020/12/22 02:33:21;;;;;;;10.95;5.28;;;8.20;98.40;;;;;;5061766;28;20029;-66
2020/12/22 02:35:46;;;;;;;9.68;5.13;;;8.30;98.40;;;;;;5068615;28;20055;-66
2020/12/22 02:38:12;;;;;;;11.10;5.47;;;8.30;98.40;;;;;;5066166;28;20155;-66
2020/12/22 02:40:38;;;;;;;9.13;5.22;;;8.30;98.40;;;;;;5058761;28;20059;-66
2020/12/22 02:43:10;;;;;;;11.65;5.65;;;8.30;98.40;;;;;;5052089;28;20104;-66
2020/12/22 02:45:37;;;;;;;12.38;5.95;;;8.30;98.40;;;;;;5061100;28;20511;-66
2020/12/22 02:48:02;;;;;;;9.77;5.53;;;8.40;98.50;;;;;;5044414;28;20132;-67
2020/12/22 02:50:28;;;;;;;10.02;5.85;;;8.40;98.50;;;;;;5067941;28;20401;-65
2020/12/22 02:52:53;;;;;;;9.52;5.55;;;8.50;98.40;;;;;;5062358;28;20036;-66
2020/12/22 02:55:19;;;;;;;9.88;4.85;;;8.50;98.40;;;;;;5049965;28;20088;-67
2020/12/22 02:57:45;;;;;;;10.77;5.72;;;8.50;98.40;;;;;;5059677;28;20111;-66
2020/12/22 03:00:10;;;;;;;12.30;5.28;;;8.50;98.40;;;;;;5059516;28;20338;-65
2020/12/22 03:02:36;;;;;;;8.45;4.68;;;8.60;98.50;;;;;;5090892;22;20051;-67
2020/12/22 03:05:01;;;;;;;9.18;4.95;;;8.60;98.50;;;;;;5065032;28;20054;-68
2020/12/22 03:07:27;;;;;;;11.27;5.50;;;8.50;98.50;;;;;;5080823;28;20020;-68
2020/12/22 03:09:53;;;;;;;9.95;5.22;;;8.60;98.50;;;;;;5083097;28;20044;-68
2020/12/22 03:12:18;;;;;;;8.85;5.00;;;8.60;98.50;;;;;;5073444;28;20501;-68
2020/12/22 03:14:44;;;;;;;8.05;4.38;;;8.60;98.50;;;;;;5085290;28;20028;-67
2020/12/22 03:17:09;;;;;;;9.38;4.50;;;8.60;98.50;;;;;;5065045;28;20036;-68
2020/12/22 03:19:37;;;;;;;9.98;4.25;;;8.60;98.50;;;;;;5071175;28;20020;-68
2020/12/22 03:22:04;;;;;;;7.35;3.75;;;8.60;98.60;;;;;;5041897;28;20060;-68
2020/12/22 03:24:30;;;;;;;8.25;4.25;;;8.70;98.60;;;;;;5057002;28;20032;-67
2020/12/22 03:26:56;;;;;;;7.93;4.10;;;8.70;98.60;;;;;;5055365;28;20090;-68
2020/12/22 03:29:21;;;;;;;10.05;3.42;;;8.80;98.70;;;;;;5047657;28;20033;-68
2020/12/22 03:31:47;;;;;;;8.70;3.55;;;8.80;98.70;;;;;;5032211;28;20020;-67
2020/12/22 03:34:12;;;;;;;7.65;3.58;;;8.80;98.70;;;;;;5066683;28;20481;-68
2020/12/22 03:36:38;;;;;;;7.43;3.42;;;8.80;98.70;;;;;;5047454;28;20027;-67
2020/12/22 03:39:04;;;;;;;6.55;3.60;;;8.90;98.70;;;;;;5066543;28;20090;-67
2020/12/22 03:41:29;;;;;;;7.35;3.67;;;8.90;98.80;;;;;;5065421;28;20036;-68
2020/12/22 03:43:56;;;;;;;6.88;3.58;;;9.00;98.80;;;;;;5057721;28;20195;-67
2020/12/22 03:46:22;;;;;;;6.25;3.42;;;8.90;98.80;;;;;;5063889;28;20036;-67
2020/12/22 03:48:48;;;;;;;6.85;3.80;;;9.00;98.80;;;;;;5063940;28;20027;-67
2020/12/22 03:51:13;;;;;;;9.27;4.20;;;9.00;98.80;;;;;;5063173;28;20020;-67
2020/12/22 03:53:39;;;;;;;7.20;3.47;;;9.10;98.80;;;;;;5076886;28;20087;-67
2020/12/22 03:56:06;;;;;;;8.88;4.60;;;9.10;98.80;;;;;;5070392;28;20520;-67
2020/12/22 03:58:31;;;;;;;8.52;4.22;;;9.20;98.80;;;;;;5060311;28;20039;-68
2020/12/22 04:00:57;;;;;;;7.70;3.65;;;9.20;98.80;;;;;;5076987;28;20366;-67
2020/12/22 04:03:25;;;;;;;7.18;3.65;;;9.30;98.90;;;;;;5061358;28;20064;-67
2020/12/22 04:05:50;;;;;;;9.52;4.13;;;9.40;98.80;;;;;;5063685;28;20121;-69
2020/12/22 04:08:17;;;;;;;7.13;3.42;;;9.50;98.90;;;;;;5060158;28;20020;-67
2020/12/22 04:10:42;;;;;;;6.78;3.30;;;9.50;98.90;;;;;;5060995;28;20448;-67
2020/12/22 04:13:08;;;;;;;6.05;3.08;;;9.60;98.90;;;;;;5061172;28;20090;-67
2020/12/22 04:15:34;;;;;;;7.32;2.92;;;9.60;98.90;;;;;;5063197;28;20066;-68
2020/12/22 04:17:59;;;;;;;8.35;3.97;;;9.60;98.90;;;;;;5039668;28;20430;-68
2020/12/22 04:20:25;;;;;;;7.30;3.50;;;9.60;98.90;;;;;;5046539;28;20124;-67
2020/12/22 04:22:50;;;;;;;8.30;3.67;;;9.60;98.90;;;;;;5048933;28;20079;-68
2020/12/22 04:25:16;;;;;;;7.85;3.83;;;9.70;98.90;;;;;;5044171;28;20240;-69
2020/12/22 04:27:42;;;;;;;9.27;3.75;;;9.80;98.90;;;;;;5047794;28;20719;-67
2020/12/22 04:30:07;;;;;;;8.20;3.10;;;9.80;98.90;;;;;;5050542;28;20029;-67
2020/12/22 04:32:33;;;;;;;8.77;3.83;;;9.80;98.90;;;;;;5077203;28;20393;-68
2020/12/22 04:34:58;;;;;;;9.02;4.03;;;9.90;98.90;;;;;;5060574;28;20029;-68
2020/12/22 04:37:25;;;;;;;9.15;3.85;;;9.90;98.90;;;;;;5071320;28;20096;-67
2020/12/22 04:39:50;;;;;;;9.23;4.60;;;10.00;98.90;;;;;;5068618;28;20182;-68
2020/12/22 04:42:19;;;;;;;7.63;3.53;;;10.10;98.90;;;;;;5063927;28;20108;-68
2020/12/22 04:44:45;;;;;;;8.40;4.25;;;10.10;98.90;;;;;;5064296;28;20132;-67
2020/12/22 04:47:11;;;;;;;9.60;4.78;;;10.10;98.90;;;;;;5059958;28;20242;-68
2020/12/22 04:49:42;;;;;;;8.38;4.20;;;10.20;98.90;;;;;;5051311;28;20079;-67
2020/12/22 04:52:09;;;;;;;7.38;4.32;;;10.30;98.90;;;;;;5065560;28;20048;-68
2020/12/22 04:54:37;;;;;;;7.38;4.05;;;10.30;98.90;;;;;;5070573;28;20409;-69
2020/12/22 04:57:04;;;;;;;8.85;4.30;;;10.40;98.80;;;;;;5037680;28;20037;-67
2020/12/22 04:59:29;;;;;;;8.43;4.43;;;10.50;98.80;;;;;;5046447;28;20108;-70
2020/12/22 05:01:56;;;;;;;7.82;4.78;;;10.50;98.70;;;;;;5048697;28;20579;-68
2020/12/22 05:04:22;;;;;;;10.57;5.65;;;10.50;98.60;;;;;;5045988;28;20029;-67
2020/12/22 05:06:48;;;;;;;9.98;5.25;;;10.50;98.50;;;;;;5048770;28;20100;-68
2020/12/22 05:09:13;;;;;;;10.18;5.15;;;10.60;98.50;;;;;;5046340;28;20469;-67
2020/12/22 05:11:39;;;;;;;6.78;4.13;;;10.70;98.40;;;;;;5062206;28;20036;-67
2020/12/22 05:14:06;;;;;;;8.52;5.38;;;10.80;98.20;;;;;;5087346;28;20036;-67
2020/12/22 05:16:37;;;;;;;8.18;4.85;;;10.80;98.10;;;;;;5059443;28;20511;-68
2020/12/22 05:19:04;;;;;;;8.70;4.82;;;10.80;98.10;;;;;;5051538;28;20134;-67
2020/12/22 05:21:36;;;;;;;7.85;5.15;;;10.80;98.10;;;;;;5069033;28;20024;-68
2020/12/22 05:24:02;;;;;;;7.75;4.80;;;10.90;98.10;;;;;;5058234;28;20033;-68
2020/12/22 05:26:33;;;;;;;8.38;4.60;;;10.90;98.00;;;;;;5054365;28;20029;-68
2020/12/22 05:29:09;;;;;;;8.27;4.88;;;10.90;98.00;;;;;;5055964;28;20024;-68
2020/12/22 05:31:41;;;;;;;9.63;5.05;;;11.00;98.10;;;;;;5059769;28;20021;-69
2020/12/22 05:34:10;;;;;;;8.50;5.10;;;11.00;98.10;;;;;;5051250;28;20381;-68
2020/12/22 05:36:38;;;;;;;9.27;5.72;;;11.00;98.00;;;;;;5085031;28;20352;-67
2020/12/22 05:39:05;;;;;;;10.02;5.70;;;11.00;98.10;;;;;;5054977;28;20029;-68
2020/12/22 05:41:34;;;;;;;9.18;5.93;;;11.00;98.10;;;;;;5053903;28;20124;-67
2020/12/22 05:43:59;;;;;;;9.27;5.38;;;11.00;98.10;;;;;;5050599;28;20499;-69
2020/12/22 05:46:29;;;;;;;9.65;5.82;;;11.10;98.10;;;;;;5047460;28;20060;-68
2020/12/22 05:49:02;;;;;;;11.57;6.15;;;11.10;98.10;;;;;;5052364;28;20061;-68
2020/12/22 05:51:29;;;;;;;10.30;5.93;;;11.10;98.10;;;;;;5065846;28;20496;-69
2020/12/22 05:54:12;;;;;;;10.45;5.95;;;11.10;98.10;;;;;;5066198;28;20103;-66
2020/12/22 05:56:38;;;;;;;9.73;6.35;;;11.10;98.10;;;;;;5068174;28;20434;-66
2020/12/22 05:59:21;;;;;;;10.60;5.90;;;11.20;98.10;;;;;;5058480;28;20391;-67
2020/12/22 06:01:47;;;;;;;10.95;6.43;;;11.20;98.00;;;;;;5062567;28;20218;-67
2020/12/22 06:04:17;;;;;;;9.77;6.40;;;11.30;98.00;;;;;;5055695;28;20029;-66
2020/12/22 06:06:42;;;;;;;8.68;5.78;;;11.30;97.90;;;;;;5061591;28;20487;-66
2020/12/22 06:09:08;;;;;;;10.60;6.55;;;11.30;98.00;;;;;;5060781;28;20127;-66
2020/12/22 06:11:35;;;;;;;10.65;6.72;;;11.30;98.00;;;;;;5062422;28;20135;-69
2020/12/22 06:14:05;;;;;;;10.40;6.60;;;11.40;98.00;;;;;;5057080;28;20404;-66
2020/12/22 06:16:31;;;;;;;10.25;6.38;;;11.30;98.00;;;;;;5076337;28;20454;-66
2020/12/22 06:18:57;;;;;;;9.90;6.22;;;11.40;98.10;;;;;;5042912;28;20111;-67
2020/12/22 06:21:23;;;;;;;10.00;6.13;;;11.30;98.10;;;;;;5064641;28;20028;-67
2020/12/22 06:23:50;;;;;;;9.75;6.20;;;11.40;98.20;;;;;;5032198;28;20580;-66
2020/12/22 06:26:18;;;;;;;9.85;6.05;;;11.30;98.30;;;;;;5052961;28;20385;-67
2020/12/22 06:28:44;;;;;;;10.82;5.93;;;11.40;98.30;;;;;;5047149;28;20033;-68
2020/12/22 06:31:22;;;;;;;10.35;6.15;;;11.40;98.30;;;;;;5056707;28;20037;-66
2020/12/22 06:33:48;;;;;;;8.35;5.25;;;11.50;98.30;;;;;;5066845;28;20115;-67
2020/12/22 06:36:17;;;;;;;10.50;5.57;;;11.40;98.30;;;;;;5064649;28;20360;-66
2020/12/22 06:38:59;;;;;;;12.65;5.93;;;11.50;98.30;;;;;;5087257;28;20056;-67
2020/12/22 06:41:35;;;;;;;8.90;5.45;;;11.50;98.30;;;;;;5058676;28;20500;-66
2020/12/22 06:44:26;;;;;;;10.73;6.13;;;11.50;98.30;;;;;;5061991;28;20121;-67
2020/12/22 06:46:53;;;;;;;8.68;5.53;;;11.50;98.20;;;;;;5058588;28;20124;-67
2020/12/22 06:49:53;;;;;;;9.10;6.05;;;11.50;98.20;;;;;;5054504;28;20481;-66
2020/12/22 06:52:42;;;;;;;9.23;6.18;;;11.50;98.10;;;;;;5049571;28;20032;-67
2020/12/22 06:55:09;;;;;;;8.90;5.85;;;11.50;98.10;;;;;;5058135;28;20100;-66
2020/12/22 06:57:46;;;;;;;10.15;6.10;;;11.50;98.10;;;;;;5056929;28;21678;-67
2020/12/22 07:00:32;;;;;;;9.05;6.40;;;11.60;98.10;;;;;;5082303;28;20099;-67
2020/12/22 07:03:15;;;;;;;9.48;6.25;;;11.60;98.20;;;;;;5065256;28;20138;-66
2020/12/22 07:05:41;;;;;;;9.63;6.65;;;11.60;98.10;;;;;;5054302;28;20031;-66
2020/12/22 07:08:07;;;;;;;8.80;6.18;;;11.60;98.10;;;;;;5063999;28;20028;-66
2020/12/22 07:10:44;;;;;;;9.65;6.63;;;11.60;98.10;;;;;;5063901;28;20024;-67
2020/12/22 07:13:12;;;;;;;10.00;6.28;;;11.60;98.10;;;;;;5059549;28;20032;-66
2020/12/22 07:15:44;;;;;;;8.48;5.82;;;11.60;98.10;;;;;;5064455;28;20021;-66
2020/12/22 07:18:14;;;;;;;8.98;6.13;;;11.60;98.20;;;;;;5066965;28;20065;-66
2020/12/22 07:20:42;;;;;;;8.57;5.82;;;11.60;98.20;;;;;;5073720;28;20051;-66
2020/12/22 07:23:12;;;;;;;8.77;5.95;;;11.60;98.20;;;;;;5067478;28;20050;-67
2020/12/22 07:25:38;;;;;;;10.18;6.18;;;11.60;98.30;;;;;;5071843;28;20111;-66
2020/12/22 07:28:06;;;;;;;9.35;5.30;;;11.60;98.30;;;;;;5046315;28;20094;-66
2020/12/22 07:30:32;;;;;;;10.48;5.70;;;11.60;98.40;;;;;;5057597;28;20080;-67
2020/12/22 07:32:59;;;;;;;8.02;5.20;;;11.60;98.40;;;;;;5044405;28;20025;-67
2020/12/22 07:35:25;;;;;;;7.82;5.03;;;11.60;98.40;;;;;;5045616;28;20465;-66
2020/12/22 07:37:51;;;;;;;8.07;5.32;;;11.60;98.40;;;;;;5046696;28;20057;-66
2020/12/22 07:40:17;;;;;;;6.90;4.30;;;11.60;98.50;;;;;;5028305;28;20057;-67
2020/12/22 07:42:43;;;;;;;6.82;4.30;;;11.60;98.50;;;;;;5053291;28;20039;-67
2020/12/22 07:45:09;;;;;;;6.50;4.40;;;11.60;98.50;;;;;;5034668;28;20035;-68
2020/12/22 07:47:35;;;;;;;6.57;3.25;;;11.60;98.50;;;;;;5065353;28;20080;-67
2020/12/22 07:50:16;;;;;;;5.45;3.60;;;11.70;98.50;;;;;;5066718;28;20103;-67
2020/12/22 07:52:58;;;;;;;6.32;3.70;;;11.60;98.40;;;;;;5046097;28;20163;-67
2020/12/22 07:55:23;;;;;;;6.60;3.20;;;11.70;98.40;;;;;;5045233;28;20020;-67
2020/12/22 07:57:50;;;;;;;6.20;3.67;;;11.70;98.40;;;;;;5055226;28;20397;-67
2020/12/22 08:00:16;;;;;;;5.03;3.13;;;11.70;98.40;;;;;;5073194;28;20134;-67
2020/12/22 08:02:41;;;;;;;4.22;2.97;;;11.70;98.40;;;;;;5065623;28;20112;-67
2020/12/22 08:05:11;;;;;;;5.05;2.83;;;11.70;98.40;;;;;;5060380;28;20477;-66
2020/12/22 08:07:38;;;;;;;6.53;3.53;;;11.70;98.20;;;;;;5061425;28;20024;-67
2020/12/22 08:10:12;;;;;;;5.45;3.30;;;11.80;98.20;;;;;;5071575;28;20025;-68
2020/12/22 08:12:38;;;;;;;5.93;3.17;;;11.80;98.20;;;;;;5063897;28;20028;-67
2020/12/22 08:15:06;;;;;;;5.03;3.30;;;11.80;98.20;;;;;;5054112;28;20405;-68
2020/12/22 08:17:37;;;;;;;4.97;3.22;;;11.70;98.20;;;;;;5048537;28;20082;-67
2020/12/22 08:20:03;;;;;;;4.88;3.10;;;11.70;98.20;;;;;;5027722;28;20040;-67
2020/12/22 08:22:30;;;;;;;5.13;3.42;;;11.70;98.10;;;;;;5059218;28;20028;-67
2020/12/22 08:24:59;;;;;;;4.25;2.78;;;11.70;98.20;;;;;;5080239;28;20032;-68
2020/12/22 08:27:24;;;;;;;5.47;3.13;;;11.80;98.20;;;;;;5046442;28;20096;-66
2020/12/22 08:29:50;;;;;;;6.40;3.45;;;11.70;98.20;;;;;;5045408;28;20124;-67
2020/12/22 08:32:23;;;;;;;4.80;2.97;;;11.70;98.20;;;;;;5060169;28;20045;-67
2020/12/22 08:34:52;;;;;;;5.90;3.20;;;11.70;98.10;;;;;;5051403;28;20065;-66
2020/12/22 08:37:25;;;;;;;4.25;2.83;;;11.70;98.00;;;;;;5053370;28;20032;-67
2020/12/22 08:39:50;;;;;;;8.32;3.72;;;11.80;98.00;;;;;;5055210;28;20033;-67
2020/12/22 08:42:17;;;;;;;6.95;3.63;;;11.70;98.00;;;;;;5060444;28;20033;-67
2020/12/22 08:44:52;;;;;;;5.72;3.90;;;11.80;98.00;;;;;;5085504;28;20032;-67
2020/12/22 08:47:19;;;;;;;7.20;4.07;;;11.80;97.80;;;;;;5051505;28;20491;-66
2020/12/22 08:49:49;;;;;;;7.00;3.67;;;11.80;97.60;;;;;;5071520;28;20028;-67
2020/12/22 08:52:19;;;;;;;5.03;3.20;;;11.80;97.60;;;;;;5067566;28;20021;-67
2020/12/22 08:54:47;;;;;;;4.73;3.43;;;11.80;97.40;;;;;;5067247;28;20029;-67
2020/12/22 08:57:18;;;;;;;5.38;3.90;;;11.90;97.30;;;;;;5045186;28;20036;-67
2020/12/22 08:59:45;;;;;;;6.38;4.05;;;11.80;97.50;;;;;;5048751;28;20025;-67
2020/12/22 09:02:27;;;;;;;5.45;3.80;;;11.80;97.50;;;;;;5063331;28;20146;-67
2020/12/22 09:04:53;;;;;;;6.75;3.95;;;11.90;97.50;;;;;;5055259;28;20047;-67
2020/12/22 09:07:23;;;;;;;6.00;4.13;;;11.90;97.40;;;;;;5072593;28;20148;-67
2020/12/22 09:09:48;;;;;;;6.43;3.80;;;11.80;97.50;;;;;;5085064;28;20051;-67
2020/12/22 09:12:14;;;;;;;6.28;4.15;;;11.80;97.60;;;;;;5061014;28;20441;-68
2020/12/22 09:14:49;;;;;;;9.45;4.20;;;11.80;97.80;;;;;;5062944;28;20020;-66
2020/12/22 09:17:31;;;;;;;6.32;4.43;;;11.80;97.90;;;;;;5049117;28;20117;-67
2020/12/22 09:19:57;;;;;;;8.57;3.85;;;11.80;97.90;;;;;;5052611;28;20024;-67
2020/12/22 09:22:24;;;;;;;4.78;3.58;;;11.80;98.00;;;;;;5070225;28;20036;-66
2020/12/22 09:24:55;;;;;;;7.57;3.72;;;11.80;97.90;;;;;;5055888;28;20033;-67
2020/12/22 09:27:31;;;;;;;5.45;3.22;;;11.80;97.80;;;;;;5046760;28;20040;-67
2020/12/22 09:29:57;;;;;;;8.35;3.17;;;11.80;97.70;;;;;;5048911;28;20097;-68
2020/12/22 09:32:22;;;;;;;4.78;3.30;;;11.80;97.60;;;;;;5043211;28;20020;-67
2020/12/22 09:34:48;;;;;;;5.07;3.22;;;11.90;97.70;;;;;;5066465;28;20024;-67
2020/12/22 09:37:14;;;;;;;4.13;2.88;;;11.80;97.70;;;;;;5053705;28;20094;-66
2020/12/22 09:39:40;;;;;;;5.72;3.15;;;11.90;97.60;;;;;;5047997;28;20039;-67
2020/12/22 09:42:06;;;;;;;5.50;2.92;;;11.90;97.60;;;;;;5058441;28;20032;-67
2020/12/22 09:44:32;;;;;;;5.03;3.28;;;11.90;97.60;;;;;;5057975;28;20024;-66
2020/12/22 09:46:58;;;;;;;7.75;3.55;;;11.90;97.60;;;;;;5055376;28;20385;-67
2020/12/22 09:49:25;;;;;;;6.50;3.63;;;11.90;97.60;;;;;;5064068;28;20028;-68
2020/12/22 09:51:52;;;;;;;7.05;3.70;;;11.90;97.70;;;;;;5057690;28;20049;-67
2020/12/22 09:54:18;;;;;;;4.93;3.70;;;11.90;97.60;;;;;;5059345;28;20346;-66
2020/12/22 09:56:43;;;;;;;5.47;3.75;;;11.80;97.70;;;;;;5054223;28;20354;-66
2020/12/22 09:59:09;;;;;;;4.50;3.40;;;11.90;97.70;;;;;;5057142;28;20135;-67
2020/12/22 10:01:35;;;;;;;5.70;3.20;;;11.90;97.60;;;;;;5080899;28;20085;-67
2020/12/22 10:04:01;;;;;;;6.78;3.85;;;11.90;97.50;;;;;;5053291;28;20133;-68
2020/12/22 10:06:27;;;;;;;5.15;2.63;;;11.90;97.60;;;;;;5047855;28;20053;-67
2020/12/22 10:08:54;;;;;;;8.60;3.90;;;12.00;97.20;;;;;;5053542;28;20170;-67
2020/12/22 10:11:23;;;;;;;4.68;3.10;;;11.90;97.40;;;;;;5054282;28;20040;-67
2020/12/22 10:13:50;;;;;;;4.70;2.67;;;11.90;97.50;;;;;;5062509;28;20029;-69
2020/12/22 10:16:20;;;;;;;4.40;3.25;;;11.90;97.50;;;;;;5064042;28;20048;-67
2020/12/22 10:18:46;;;;;;;7.45;3.20;;;11.90;97.60;;;;;;5067611;28;20385;-67
2020/12/22 10:21:13;;;;;;;6.38;3.05;;;11.90;97.60;;;;;;5055000;28;20064;-68
2020/12/22 10:23:40;;;;;;;5.90;2.78;;;11.90;97.60;;;;;;5061522;28;20405;-67
2020/12/22 10:26:07;;;;;;;3.97;2.50;;;11.90;97.70;;;;;;5051682;28;20039;-66
2020/12/22 10:28:35;;;;;;;6.45;2.33;;;11.90;97.60;;;;;;5047355;28;20112;-67
2020/12/22 10:31:00;;;;;;;5.25;2.47;;;11.90;97.40;;;;;;5053197;28;20078;-67
2020/12/22 10:33:26;;;;;;;3.88;2.72;;;11.90;97.30;;;;;;5058235;28;20089;-68
2020/12/22 10:35:53;;;;;;;3.72;2.63;;;12.00;97.20;;;;;;5056538;28;20052;-66
2020/12/22 10:38:19;;;;;;;6.75;2.47;;;12.00;96.90;;;;;;5060161;28;20044;-67
2020/12/22 10:40:44;;;;;;;3.80;2.55;;;12.00;96.90;;;;;;5057003;28;20076;-67
2020/12/22 10:43:10;;;;;;;5.43;2.15;;;12.00;97.00;;;;;;5052480;28;20112;-66
2020/12/22 10:45:37;;;;;;;2.60;2.10;;;12.00;97.00;;;;;;5049419;28;20438;-67
2020/12/22 10:48:03;;;;;;;4.20;2.25;;;12.00;96.90;;;;;;5060794;28;20020;-67
2020/12/22 10:50:29;;;;;;;2.70;1.70;;;12.00;97.10;;;;;;5054466;28;20137;-67
2020/12/22 10:52:55;;;;;;;5.72;2.22;;;12.00;97.00;;;;;;5057777;28;20525;-68
2020/12/22 10:55:21;;;;;;;3.75;2.40;;;11.90;96.90;;;;;;5078945;28;20027;-67
2020/12/22 10:57:47;;;;;;;3.08;2.38;;;11.90;97.00;;;;;;5055134;28;20301;-67
2020/12/22 11:00:13;;;;;;;3.38;1.80;;;11.90;97.10;;;;;;5047653;28;20253;-67
2020/12/22 11:02:40;;;;;;;2.80;1.85;;;11.90;96.90;;;;;;5053803;28;20032;-67
2020/12/22 11:05:05;;;;;;;5.22;2.08;;;12.00;96.90;;;;;;5068277;28;20127;-67
2020/12/22 11:07:45;;;;;;;2.85;1.50;;;12.10;96.80;;;;;;5046964;28;20116;-67
2020/12/22 11:10:11;;;;;;;3.30;1.98;;;12.10;95.90;;;;;;5046867;28;20512;-66
2020/12/22 11:12:37;;;;;;;1.98;1.13;;;12.00;95.90;;;;;;5065376;28;20034;-67
2020/12/22 11:15:03;;;;;;;4.25;1.45;;;12.00;95.90;;;;;;5056872;28;20397;-67
2020/12/22 11:17:29;;;;;;;3.63;1.45;;;11.90;96.40;;;;;;5063797;28;20044;-66
2020/12/22 11:19:55;;;;;;;0.98;0.70;;;11.80;96.90;;;;;;5038602;28;20049;-66
2020/12/22 11:22:20;;;;;;;2.25;0.80;;;11.70;96.70;;;;;;5053250;28;20116;-67
2020/12/22 11:24:46;;;;;;;1.88;0.95;;;11.70;96.50;;;;;;5052467;28;20064;-66
2020/12/22 11:27:11;;;;;;;1.02;0.60;;;11.60;96.80;;;;;;5059775;28;20108;-67
2020/12/22 11:29:37;;;;;;;0.63;0.50;;;11.50;96.80;;;;;;5062939;28;20501;-66
2020/12/22 11:32:02;;;;;;;2.25;0.60;;;11.40;96.90;;;;;;5058479;28;20031;-68
2020/12/22 11:34:28;;;;;;;0.90;0.70;;;11.20;96.80;;;;;;5061731;28;20024;-67
2020/12/22 11:36:54;;;;;;;1.00;0.80;;;10.90;96.40;;;;;;5050951;28;20044;-67
2020/12/22 11:39:21;;;;;;;1.67;0.80;;;10.80;96.50;;;;;;5047383;28;20036;-68
2020/12/22 11:41:47;;;;;;;1.52;0.90;;;10.80;96.50;;;;;;5050265;28;20115;-67
2020/12/22 11:44:13;;;;;;;0.93;0.80;;;10.80;96.40;;;;;;5052261;28;20120;-67
2020/12/22 11:46:45;;;;;;;1.60;1.20;;;10.70;96.30;;;;;;5054349;28;20028;-68
2020/12/22 11:49:11;;;;;;;2.63;1.42;;;10.50;95.30;;;;;;5047629;28;20035;-67
2020/12/22 11:51:38;;;;;;;2.83;1.60;;;10.40;95.70;;;;;;5045678;28;20125;-67
2020/12/22 11:54:04;;;;;;;3.08;1.77;;;10.30;95.60;;;;;;5045949;28;20116;-67
2020/12/22 11:56:31;;;;;;;4.57;2.30;;;10.20;95.50;;;;;;5035631;28;20127;-67
2020/12/22 11:58:57;;;;;;;4.90;2.90;;;10.10;95.70;;;;;;5054203;28;20040;-67
2020/12/22 12:01:27;;;;;;;7.85;2.80;;;10.00;95.90;;;;;;5064972;28;20108;-69
2020/12/22 12:03:53;;;;;;;7.35;3.38;;;10.00;96.00;;;;;;5028980;28;20089;-67
2020/12/22 12:06:19;;;;;;;8.77;4.20;;;9.90;96.10;;;;;;5049979;28;20407;-68
2020/12/22 12:08:44;;;;;;;7.22;4.00;;;9.80;96.00;;;;;;5079614;28;20183;-67
2020/12/22 12:11:10;;;;;;;7.47;3.85;;;9.80;95.60;;;;;;5059386;28;20017;-68
2020/12/22 12:13:37;;;;;;;9.05;4.15;;;9.70;95.80;;;;;;5062554;28;20111;-67
2020/12/22 12:16:03;;;;;;;8.45;4.45;;;9.70;95.80;;;;;;5053500;28;20086;-67
2020/12/22 12:18:28;;;;;;;11.05;4.57;;;9.70;95.50;;;;;;5052728;28;20139;-67
2020/12/22 12:20:54;;;;;;;7.70;4.65;;;9.70;95.60;;;;;;5045930;28;20029;-66
2020/12/22 12:23:20;;;;;;;8.15;4.00;;;9.60;95.60;;;;;;5050610;28;20087;-67
2020/12/22 12:25:45;;;;;;;11.63;4.45;;;9.60;95.10;;;;;;5051338;28;20029;-67
2020/12/22 12:28:11;;;;;;;9.45;4.70;;;9.60;95.00;;;;;;5059405;28;20110;-67
2020/12/22 12:30:36;;;;;;;9.32;4.60;;;9.60;95.00;;;;;;5058307;28;20496;-67
2020/12/22 12:33:02;;;;;;;8.63;4.85;;;9.60;95.20;;;;;;5049174;28;20047;-66
2020/12/22 12:35:28;;;;;;;7.78;4.28;;;9.50;95.50;;;;;;5053214;28;20211;-67
2020/12/22 12:37:53;;;;;;;10.13;4.85;;;9.40;95.10;;;;;;5069211;28;20520;-68
2020/12/22 12:40:19;;;;;;;12.20;4.85;;;9.40;95.40;;;;;;5062461;28;20150;-67
2020/12/22 12:42:44;;;;;;;10.23;5.32;;;9.40;95.30;;;;;;5058092;28;20028;-67
2020/12/22 12:45:13;;;;;;;8.15;4.28;;;9.40;95.50;;;;;;5070277;28;20362;-67
2020/12/22 12:47:40;;;;;;;8.73;4.95;;;9.30;95.10;;;;;;5039400;28;20025;-67
2020/12/22 12:50:05;;;;;;;11.32;4.70;;;9.30;95.10;;;;;;5060016;28;20021;-67